Time;durP1;ratioP1;P1;durP2;ratioP2;P2;SDS_P1;SDS_P2;PMS_P1;PMS_P2;Temp;Humidity;BMP_temperature;BMP_pressure;BME280_temperature;BME280_humidity;BME280_pressure;Samples;Min_cycle;Max_cycle;Signal;HPM_P1;HPM_P2
2021/08/17 00:01:55;;;;;;;23.95;1.85;;;13.50;99.90;;;;;;5082984;28;20036;-68
2021/08/17 00:04:21;;;;;;;5.90;1.95;;;13.60;99.90;;;;;;5083173;28;20040;-72
2021/08/17 00:06:46;;;;;;;12.45;1.85;;;13.60;99.90;;;;;;5082491;28;20039;-71
2021/08/17 00:09:13;;;;;;;9.90;1.95;;;13.60;99.90;;;;;;5098815;28;20037;-69
2021/08/17 00:11:39;;;;;;;2.67;1.60;;;13.50;99.90;;;;;;5083145;28;20062;-69
2021/08/17 00:14:05;;;;;;;13.13;1.90;;;13.50;99.90;;;;;;5081268;28;20056;-68
2021/08/17 00:16:31;;;;;;;10.93;2.63;;;13.50;99.90;;;;;;5082683;28;20036;-68
2021/08/17 00:18:56;;;;;;;7.80;1.95;;;13.50;99.90;;;;;;5082900;28;20056;-70
2021/08/17 00:21:22;;;;;;;14.73;3.10;;;13.50;99.90;;;;;;5082627;28;20028;-70
2021/08/17 00:23:48;;;;;;;9.77;2.15;;;13.50;99.90;;;;;;5082444;28;20024;-71
2021/08/17 00:26:14;;;;;;;8.25;2.45;;;13.40;99.90;;;;;;5100032;28;20104;-71
2021/08/17 00:28:39;;;;;;;16.30;1.88;;;13.50;99.90;;;;;;5086887;28;20040;-68
2021/08/17 00:31:05;;;;;;;15.68;2.53;;;13.50;99.90;;;;;;5102387;28;20032;-71
2021/08/17 00:33:31;;;;;;;12.98;2.40;;;13.50;99.90;;;;;;5086275;28;20029;-70
2021/08/17 00:35:57;;;;;;;12.98;1.98;;;13.40;99.90;;;;;;5086199;28;20090;-71
2021/08/17 00:38:24;;;;;;;7.43;2.10;;;13.40;99.90;;;;;;5101712;28;20032;-68
2021/08/17 00:40:49;;;;;;;12.85;1.90;;;13.40;99.90;;;;;;5086341;28;20021;-69
2021/08/17 00:43:15;;;;;;;5.00;1.80;;;13.60;99.90;;;;;;5101408;28;20067;-70
2021/08/17 00:45:40;;;;;;;16.23;2.85;;;13.50;99.90;;;;;;5086423;28;20033;-70
2021/08/17 00:48:06;;;;;;;21.48;2.03;;;13.50;99.90;;;;;;5102066;28;20090;-71
2021/08/17 00:50:34;;;;;;;10.80;2.08;;;13.50;99.90;;;;;;5101938;28;20538;-68
2021/08/17 00:53:01;;;;;;;5.88;1.83;;;13.50;99.90;;;;;;5085741;28;20104;-68
2021/08/17 00:55:27;;;;;;;15.00;2.60;;;13.50;99.90;;;;;;5101451;28;20029;-71
2021/08/17 00:57:53;;;;;;;5.35;2.35;;;13.50;99.90;;;;;;5101589;28;20021;-71
2021/08/17 01:00:18;;;;;;;4.82;1.83;;;13.50;99.90;;;;;;5085743;28;20044;-72
2021/08/17 01:02:44;;;;;;;16.58;2.70;;;13.60;99.90;;;;;;5085590;28;20059;-71
2021/08/17 01:05:11;;;;;;;3.38;1.83;;;13.60;99.90;;;;;;5085994;28;20039;-74
2021/08/17 01:07:38;;;;;;;16.40;2.75;;;13.70;99.90;;;;;;5086060;28;20020;-73
2021/08/17 01:10:05;;;;;;;6.43;1.63;;;13.60;99.90;;;;;;5085817;28;20029;-69
2021/08/17 01:12:30;;;;;;;12.57;2.47;;;13.60;99.90;;;;;;5085462;28;20048;-69
2021/08/17 01:14:56;;;;;;;11.02;2.40;;;13.70;99.90;;;;;;5084931;28;20075;-73
2021/08/17 01:17:22;;;;;;;16.05;2.70;;;13.60;99.90;;;;;;5085862;28;20082;-70
2021/08/17 01:19:50;;;;;;;14.55;2.63;;;13.70;99.90;;;;;;5085506;28;20028;-69
2021/08/17 01:22:16;;;;;;;7.43;1.98;;;13.70;99.90;;;;;;5085758;28;20078;-68
2021/08/17 01:24:42;;;;;;;10.63;2.78;;;13.70;99.90;;;;;;5085293;28;20028;-75
2021/08/17 01:27:10;;;;;;;15.10;2.78;;;13.70;99.90;;;;;;5085708;28;20040;-72
2021/08/17 01:29:35;;;;;;;17.60;2.80;;;13.80;99.90;;;;;;5100772;28;20078;-74
2021/08/17 01:32:01;;;;;;;7.85;2.35;;;13.70;99.90;;;;;;5085010;28;20025;-73
2021/08/17 01:34:27;;;;;;;22.17;3.00;;;13.80;99.90;;;;;;5085219;28;20028;-72
2021/08/17 01:36:52;;;;;;;7.25;2.28;;;13.80;99.90;;;;;;5084488;28;20100;-73
2021/08/17 01:39:18;;;;;;;3.90;1.70;;;13.70;99.90;;;;;;5100822;28;20024;-71
2021/08/17 01:41:45;;;;;;;12.88;2.63;;;13.80;99.90;;;;;;5084776;28;20028;-76
2021/08/17 01:44:12;;;;;;;11.13;1.90;;;13.80;99.90;;;;;;5100780;28;20074;-70
2021/08/17 01:46:42;;;;;;;8.88;2.22;;;13.70;99.90;;;;;;5085350;28;20024;-72
2021/08/17 01:49:08;;;;;;;10.57;1.98;;;13.80;99.90;;;;;;5100679;28;20115;-74
2021/08/17 01:51:34;;;;;;;8.10;1.65;;;13.70;99.90;;;;;;5085029;28;20017;-70
2021/08/17 01:54:02;;;;;;;9.35;1.83;;;13.70;99.90;;;;;;5085004;28;20030;-73
2021/08/17 01:56:27;;;;;;;3.83;1.77;;;13.70;99.90;;;;;;5084943;28;20044;-72
2021/08/17 01:58:53;;;;;;;13.00;3.10;;;13.70;99.90;;;;;;5084570;28;20036;-72
2021/08/17 02:01:19;;;;;;;7.60;1.92;;;13.70;99.90;;;;;;5084267;28;20052;-70
2021/08/17 02:03:44;;;;;;;6.07;1.35;;;13.70;99.90;;;;;;5084900;28;20025;-78
2021/08/17 02:06:10;;;;;;;13.38;2.50;;;13.70;99.90;;;;;;5100310;28;20029;-74
2021/08/17 02:08:36;;;;;;;12.00;2.50;;;13.70;99.90;;;;;;5084995;28;20033;-77
2021/08/17 02:11:02;;;;;;;4.28;1.65;;;13.70;99.90;;;;;;5099972;28;20024;-73
2021/08/17 02:13:29;;;;;;;9.52;2.20;;;13.70;99.90;;;;;;5100107;28;20036;-74
2021/08/17 02:15:55;;;;;;;9.77;2.03;;;13.70;99.90;;;;;;5099894;28;20094;-72
2021/08/17 02:18:21;;;;;;;11.73;2.25;;;13.70;99.90;;;;;;5099852;28;20461;-74
2021/08/17 02:20:47;;;;;;;6.05;1.90;;;13.70;99.90;;;;;;5084072;28;20029;-76
2021/08/17 02:23:13;;;;;;;8.80;1.80;;;13.70;99.90;;;;;;5083121;28;20035;-73
2021/08/17 02:25:39;;;;;;;4.22;1.83;;;13.70;99.90;;;;;;5100068;28;20127;-71
2021/08/17 02:28:05;;;;;;;7.57;1.80;;;13.70;99.90;;;;;;5083929;28;20031;-73
2021/08/17 02:30:31;;;;;;;6.82;2.42;;;13.70;99.90;;;;;;5084178;28;20037;-72
2021/08/17 02:32:56;;;;;;;6.13;1.63;;;13.70;99.90;;;;;;5084311;28;20032;-73
2021/08/17 02:35:22;;;;;;;5.32;1.60;;;13.70;99.90;;;;;;5084147;28;20036;-75
2021/08/17 02:37:48;;;;;;;4.15;1.83;;;13.70;99.90;;;;;;5083373;28;20070;-73
2021/08/17 02:40:14;;;;;;;15.68;1.80;;;13.70;99.90;;;;;;5084064;28;20104;-73
2021/08/17 02:42:39;;;;;;;5.47;1.67;;;13.70;99.90;;;;;;5084229;28;20036;-72
2021/08/17 02:45:06;;;;;;;3.88;1.63;;;13.70;99.90;;;;;;5084095;28;20044;-71
2021/08/17 02:47:33;;;;;;;18.80;2.50;;;13.70;99.90;;;;;;5099080;28;20040;-71
2021/08/17 02:49:59;;;;;;;10.95;2.55;;;13.60;99.90;;;;;;5084001;28;20021;-70
2021/08/17 02:52:25;;;;;;;2.55;1.52;;;13.60;99.90;;;;;;5099556;28;20555;-74
2021/08/17 02:54:51;;;;;;;6.10;2.10;;;13.50;99.90;;;;;;5099238;28;20139;-72
2021/08/17 02:57:20;;;;;;;5.82;2.30;;;13.60;99.90;;;;;;5083260;28;20037;-70
2021/08/17 02:59:45;;;;;;;20.27;2.72;;;13.50;99.90;;;;;;5098977;28;20029;-68
2021/08/17 03:02:11;;;;;;;8.35;2.33;;;13.50;99.90;;;;;;5083611;28;20029;-74
2021/08/17 03:04:37;;;;;;;5.07;1.88;;;13.50;99.90;;;;;;5083592;28;20051;-71
2021/08/17 03:07:06;;;;;;;6.10;1.98;;;13.50;99.90;;;;;;5083684;28;20025;-70
2021/08/17 03:09:32;;;;;;;8.65;2.05;;;13.50;99.90;;;;;;5083437;28;20105;-72
2021/08/17 03:11:58;;;;;;;6.82;2.60;;;13.40;99.90;;;;;;5083706;28;20052;-71
2021/08/17 03:14:24;;;;;;;9.63;3.15;;;13.60;99.90;;;;;;5082936;28;20100;-72
2021/08/17 03:16:49;;;;;;;13.98;2.28;;;13.50;99.90;;;;;;5083010;28;20044;-73
2021/08/17 03:19:16;;;;;;;7.65;2.70;;;13.50;99.90;;;;;;5083203;28;20048;-74
2021/08/17 03:21:42;;;;;;;4.90;2.25;;;13.40;99.90;;;;;;5098987;28;20040;-71
2021/08/17 03:24:08;;;;;;;10.50;3.20;;;13.40;99.90;;;;;;5083401;28;20082;-70
2021/08/17 03:26:33;;;;;;;10.13;2.78;;;13.40;99.90;;;;;;5083331;28;20465;-73
2021/08/17 03:28:59;;;;;;;8.63;1.92;;;13.40;99.90;;;;;;5083242;28;20019;-71
2021/08/17 03:31:24;;;;;;;18.95;2.95;;;13.40;99.90;;;;;;5083365;28;20028;-71
2021/08/17 03:33:51;;;;;;;6.55;2.42;;;13.40;99.90;;;;;;5082869;28;20033;-72
2021/08/17 03:36:18;;;;;;;5.30;1.92;;;13.40;99.90;;;;;;5098290;28;20097;-71
2021/08/17 03:38:44;;;;;;;8.48;2.55;;;13.40;99.90;;;;;;5081807;28;20384;-69
2021/08/17 03:41:09;;;;;;;10.25;2.78;;;13.40;99.90;;;;;;5083190;28;20031;-69
2021/08/17 03:43:37;;;;;;;19.13;1.95;;;13.40;99.90;;;;;;5099192;28;20032;-70
2021/08/17 03:46:02;;;;;;;12.75;2.58;;;13.40;99.90;;;;;;5083017;28;20024;-71
2021/08/17 03:48:28;;;;;;;8.73;2.58;;;13.30;99.90;;;;;;5083318;28;20108;-68
2021/08/17 03:50:53;;;;;;;9.80;3.13;;;13.30;99.90;;;;;;5082689;28;20062;-70
2021/08/17 03:53:19;;;;;;;3.90;2.33;;;13.30;99.90;;;;;;5082995;28;20033;-71
2021/08/17 03:55:45;;;;;;;16.38;2.50;;;13.30;99.90;;;;;;5083022;28;20064;-70
2021/08/17 03:58:10;;;;;;;4.85;2.20;;;13.20;99.90;;;;;;5083280;28;20028;-70
2021/08/17 04:00:36;;;;;;;8.50;2.38;;;13.30;99.90;;;;;;5071391;28;20087;-74
2021/08/17 04:03:03;;;;;;;7.65;3.03;;;13.30;99.90;;;;;;5081418;28;20032;-71
2021/08/17 04:05:28;;;;;;;23.35;3.33;;;13.30;99.90;;;;;;5102209;28;20080;-70
2021/08/17 04:07:55;;;;;;;15.82;2.83;;;13.20;99.90;;;;;;5087302;28;20064;-71
2021/08/17 04:10:21;;;;;;;8.57;2.83;;;13.30;99.90;;;;;;5086850;28;20440;-72
2021/08/17 04:12:47;;;;;;;4.60;2.33;;;13.20;99.90;;;;;;5086886;28;20032;-71
2021/08/17 04:15:14;;;;;;;16.67;3.63;;;13.20;99.90;;;;;;5085474;28;20509;-73
2021/08/17 04:17:41;;;;;;;5.72;2.45;;;13.20;99.90;;;;;;5087083;28;20072;-74
2021/08/17 04:20:10;;;;;;;11.57;2.55;;;13.20;99.90;;;;;;5086191;28;20024;-73
2021/08/17 04:22:37;;;;;;;7.05;2.17;;;13.20;99.90;;;;;;5079117;28;20031;-70
2021/08/17 04:25:05;;;;;;;20.33;2.38;;;13.20;99.90;;;;;;5084265;28;20032;-72
2021/08/17 04:27:31;;;;;;;11.90;3.00;;;13.20;99.90;;;;;;5062218;28;20040;-71
2021/08/17 04:29:56;;;;;;;9.23;2.50;;;13.20;99.90;;;;;;5064888;28;20052;-70
2021/08/17 04:32:22;;;;;;;17.42;2.90;;;13.20;99.90;;;;;;5065609;28;20021;-73
2021/08/17 04:34:48;;;;;;;12.30;2.63;;;13.20;99.90;;;;;;5063658;28;20100;-71
2021/08/17 04:37:14;;;;;;;9.10;2.35;;;13.20;99.90;;;;;;5063876;28;20040;-70
2021/08/17 04:39:41;;;;;;;13.52;3.00;;;13.10;99.90;;;;;;5065769;28;20033;-69
2021/08/17 04:42:08;;;;;;;8.52;2.22;;;13.10;99.90;;;;;;5065587;28;20032;-70
2021/08/17 04:44:34;;;;;;;6.88;2.08;;;13.10;99.90;;;;;;5064982;28;20029;-70
2021/08/17 04:47:00;;;;;;;9.50;1.92;;;13.10;99.90;;;;;;5073532;28;20111;-71
2021/08/17 04:49:26;;;;;;;11.52;2.15;;;13.10;99.90;;;;;;5080683;28;20096;-71
2021/08/17 04:51:52;;;;;;;5.88;2.45;;;13.10;99.90;;;;;;5092139;28;20024;-69
2021/08/17 04:54:20;;;;;;;11.45;2.83;;;13.10;99.90;;;;;;5076322;28;20028;-69
2021/08/17 04:56:46;;;;;;;7.20;2.63;;;13.10;99.90;;;;;;5087448;28;20040;-70
2021/08/17 04:59:13;;;;;;;10.18;2.10;;;13.00;99.90;;;;;;5072859;28;20063;-72
2021/08/17 05:01:39;;;;;;;7.38;2.53;;;13.00;99.90;;;;;;5065044;28;20057;-75
2021/08/17 05:04:08;;;;;;;8.43;2.13;;;13.00;99.90;;;;;;5067244;28;20038;-71
2021/08/17 05:06:34;;;;;;;8.65;2.30;;;13.00;99.90;;;;;;5067144;28;20024;-71
2021/08/17 05:09:04;;;;;;;10.60;2.30;;;12.90;99.90;;;;;;5066840;28;20080;-69
2021/08/17 05:11:29;;;;;;;8.18;2.25;;;13.00;99.90;;;;;;5064996;28;20029;-74
2021/08/17 05:13:55;;;;;;;15.02;2.47;;;12.90;99.90;;;;;;5064884;28;20056;-70
2021/08/17 05:16:21;;;;;;;11.38;2.92;;;12.90;99.90;;;;;;5067131;28;20045;-72
2021/08/17 05:18:46;;;;;;;10.13;2.45;;;12.90;99.90;;;;;;5065685;28;20032;-71
2021/08/17 05:21:12;;;;;;;12.05;2.05;;;12.90;99.90;;;;;;5067197;28;20032;-71
2021/08/17 05:23:37;;;;;;;13.82;3.58;;;12.90;99.90;;;;;;5067161;28;20116;-70
2021/08/17 05:26:03;;;;;;;8.80;2.13;;;12.90;99.90;;;;;;5066942;28;20065;-71
2021/08/17 05:28:29;;;;;;;4.85;1.95;;;12.90;99.90;;;;;;5066803;28;20021;-72
2021/08/17 05:30:54;;;;;;;3.22;1.73;;;12.80;99.90;;;;;;5065544;28;20040;-70
2021/08/17 05:33:20;;;;;;;11.00;2.67;;;12.90;99.90;;;;;;5066840;28;20029;-71
2021/08/17 05:35:45;;;;;;;14.10;1.98;;;12.80;99.90;;;;;;5065236;28;20033;-69
2021/08/17 05:38:12;;;;;;;9.65;2.38;;;12.80;99.90;;;;;;5068450;28;20060;-68
2021/08/17 05:40:38;;;;;;;8.88;2.50;;;12.80;99.90;;;;;;5075745;28;20037;-70
2021/08/17 05:43:04;;;;;;;6.40;1.80;;;12.80;99.90;;;;;;5081644;28;20035;-74
2021/08/17 05:45:31;;;;;;;7.55;1.77;;;12.80;99.90;;;;;;5093086;28;20024;-71
2021/08/17 05:47:56;;;;;;;10.90;3.28;;;12.80;99.90;;;;;;5066619;28;20053;-71
2021/08/17 05:50:22;;;;;;;4.75;2.00;;;12.80;99.90;;;;;;5066347;28;20086;-71
2021/08/17 05:52:47;;;;;;;6.57;1.95;;;12.80;99.90;;;;;;5065227;28;20048;-71
2021/08/17 05:55:14;;;;;;;10.93;2.25;;;12.80;99.90;;;;;;5066544;28;20033;-70
2021/08/17 05:57:40;;;;;;;6.57;1.77;;;12.80;99.90;;;;;;5066313;28;20037;-71
2021/08/17 06:00:10;;;;;;;17.52;2.88;;;12.80;99.90;;;;;;5066337;28;20056;-74
2021/08/17 06:02:35;;;;;;;8.45;1.98;;;12.80;99.90;;;;;;5066535;28;20021;-68
2021/08/17 06:05:01;;;;;;;4.35;2.05;;;12.80;99.90;;;;;;5064892;28;20095;-69
2021/08/17 06:07:26;;;;;;;5.65;2.60;;;12.80;99.90;;;;;;5064465;28;20033;-69
2021/08/17 06:09:52;;;;;;;3.78;1.88;;;12.90;99.90;;;;;;5064216;28;20470;-72
2021/08/17 06:12:18;;;;;;;10.00;1.73;;;12.90;99.90;;;;;;5062699;28;20029;-68
2021/08/17 06:14:43;;;;;;;5.15;1.45;;;12.90;99.90;;;;;;5064367;28;20045;-71
2021/08/17 06:17:09;;;;;;;5.78;1.77;;;13.00;99.90;;;;;;5063800;28;20057;-71
2021/08/17 06:19:35;;;;;;;7.82;1.52;;;13.00;99.90;;;;;;5064715;28;20036;-71
2021/08/17 06:22:01;;;;;;;7.45;2.35;;;13.10;99.90;;;;;;5064021;28;20028;-73
2021/08/17 06:24:27;;;;;;;5.03;2.25;;;13.10;99.90;;;;;;5064092;28;20140;-70
2021/08/17 06:26:52;;;;;;;9.65;1.63;;;13.10;99.90;;;;;;5062634;28;20025;-76
2021/08/17 06:29:18;;;;;;;17.08;2.85;;;13.20;99.90;;;;;;5063740;28;20037;-76
2021/08/17 06:31:44;;;;;;;11.30;2.67;;;13.20;99.90;;;;;;5062474;28;20035;-71
2021/08/17 06:34:11;;;;;;;5.85;1.70;;;13.20;99.90;;;;;;5064460;28;20048;-73
2021/08/17 06:36:37;;;;;;;13.00;2.05;;;13.20;99.90;;;;;;5062189;28;20048;-68
2021/08/17 06:39:04;;;;;;;6.15;1.67;;;13.10;99.90;;;;;;5061337;28;20037;-72
2021/08/17 06:41:30;;;;;;;11.48;2.65;;;13.20;99.90;;;;;;5063051;28;20029;-71
2021/08/17 06:43:56;;;;;;;7.28;1.70;;;13.20;99.90;;;;;;5063609;28;20031;-73
2021/08/17 06:46:22;;;;;;;5.40;1.85;;;13.20;99.90;;;;;;5072644;28;20100;-71
2021/08/17 06:48:47;;;;;;;4.15;1.90;;;13.20;99.90;;;;;;5063248;28;20021;-71
2021/08/17 06:51:13;;;;;;;3.67;1.92;;;13.30;99.90;;;;;;5063142;28;20033;-71
2021/08/17 06:53:41;;;;;;;1.77;1.10;;;13.40;99.90;;;;;;5063369;28;20033;-73
2021/08/17 06:56:08;;;;;;;10.82;2.13;;;13.50;99.90;;;;;;5063513;28;20045;-72
2021/08/17 06:58:34;;;;;;;5.05;1.80;;;13.60;99.90;;;;;;5063103;28;20036;-76
2021/08/17 07:01:01;;;;;;;9.55;2.35;;;13.60;99.90;;;;;;5063598;28;20021;-77
2021/08/17 07:03:27;;;;;;;3.47;1.55;;;13.70;99.90;;;;;;5067405;28;20028;-71
2021/08/17 07:05:53;;;;;;;10.02;2.05;;;13.70;99.90;;;;;;5077931;28;20358;-72
2021/08/17 07:08:18;;;;;;;21.90;3.30;;;13.70;99.90;;;;;;5063065;28;20028;-69
2021/08/17 07:10:45;;;;;;;8.90;1.75;;;13.70;99.90;;;;;;5062575;28;20033;-72
2021/08/17 07:13:12;;;;;;;5.38;1.70;;;13.70;99.90;;;;;;5076103;28;20044;-73
2021/08/17 07:15:39;;;;;;;4.03;1.73;;;13.70;99.90;;;;;;5084506;28;20052;-71
2021/08/17 07:18:05;;;;;;;6.70;1.42;;;13.80;99.90;;;;;;5063573;28;20025;-75
2021/08/17 07:20:30;;;;;;;10.00;2.13;;;13.80;99.90;;;;;;5066500;28;20036;-72
2021/08/17 07:22:56;;;;;;;10.38;2.00;;;13.90;99.90;;;;;;5082343;28;20021;-71
2021/08/17 07:25:22;;;;;;;7.00;2.05;;;14.00;99.90;;;;;;5098186;28;20132;-72
2021/08/17 07:27:47;;;;;;;3.33;1.10;;;14.10;99.90;;;;;;5098125;28;20020;-71
2021/08/17 07:30:14;;;;;;;5.15;1.30;;;14.20;99.90;;;;;;5078806;28;20029;-72
2021/08/17 07:32:44;;;;;;;6.20;1.20;;;14.20;99.90;;;;;;5074133;28;20031;-75
2021/08/17 07:35:12;;;;;;;7.88;1.92;;;14.30;99.90;;;;;;5097826;28;20025;-77
2021/08/17 07:37:41;;;;;;;5.25;1.30;;;14.30;99.90;;;;;;5069137;28;20043;-72
2021/08/17 07:40:09;;;;;;;6.68;1.70;;;14.30;99.90;;;;;;5061430;28;20025;-73
2021/08/17 07:42:35;;;;;;;4.47;1.50;;;14.40;99.90;;;;;;5074024;28;20096;-72
2021/08/17 07:45:03;;;;;;;11.50;2.53;;;14.40;99.90;;;;;;5083061;28;20028;-74
2021/08/17 07:47:28;;;;;;;2.22;1.08;;;14.50;99.90;;;;;;5082796;28;20086;-75
2021/08/17 07:49:54;;;;;;;3.45;1.55;;;14.60;99.90;;;;;;5098552;28;20020;-74
2021/08/17 07:52:20;;;;;;;2.65;1.20;;;14.70;99.90;;;;;;5082737;28;20039;-70
2021/08/17 07:54:54;;;;;;;7.90;1.63;;;14.80;99.90;;;;;;5083300;28;20109;-73
2021/08/17 07:57:19;;;;;;;3.80;1.30;;;14.90;99.90;;;;;;5082621;28;20481;-73
2021/08/17 07:59:45;;;;;;;6.90;1.58;;;15.10;99.90;;;;;;5077124;28;20071;-74
2021/08/17 08:02:14;;;;;;;5.95;1.52;;;15.20;99.90;;;;;;5062835;28;20033;-72
2021/08/17 08:04:42;;;;;;;5.07;1.10;;;15.30;99.90;;;;;;5069299;28;20036;-76
2021/08/17 08:07:09;;;;;;;9.05;2.22;;;15.50;99.90;;;;;;5077756;28;20033;-73
2021/08/17 08:09:34;;;;;;;8.52;1.67;;;15.50;99.90;;;;;;5063137;28;20106;-73
2021/08/17 08:12:00;;;;;;;8.77;1.63;;;15.60;99.90;;;;;;5060779;28;20033;-75
2021/08/17 08:14:25;;;;;;;2.88;0.90;;;15.60;99.90;;;;;;5064907;28;20051;-75
2021/08/17 08:16:51;;;;;;;2.20;1.00;;;15.80;99.90;;;;;;5061348;28;20060;-77
2021/08/17 08:19:17;;;;;;;3.00;1.15;;;15.90;99.90;;;;;;5069439;28;20033;-73
2021/08/17 08:21:42;;;;;;;2.05;0.93;;;16.00;99.90;;;;;;5082588;28;20032;-73
2021/08/17 08:24:09;;;;;;;5.88;1.60;;;16.00;99.90;;;;;;5066877;28;20061;-73
2021/08/17 08:26:34;;;;;;;7.38;1.98;;;16.00;99.90;;;;;;5062634;28;20033;-73
2021/08/17 08:29:00;;;;;;;2.13;1.05;;;16.10;99.90;;;;;;5060823;28;20059;-73
2021/08/17 08:31:25;;;;;;;3.83;1.45;;;16.10;99.90;;;;;;5062421;28;20044;-73
2021/08/17 08:33:51;;;;;;;16.75;1.70;;;16.20;99.90;;;;;;5061086;28;20033;-73
2021/08/17 08:36:18;;;;;;;9.38;1.92;;;16.30;99.90;;;;;;5060902;28;20047;-75
2021/08/17 08:38:44;;;;;;;11.93;1.85;;;16.50;99.90;;;;;;5060915;28;20029;-74
2021/08/17 08:41:16;;;;;;;7.82;1.52;;;16.60;99.90;;;;;;5062509;28;20056;-74
2021/08/17 08:43:46;;;;;;;8.98;1.30;;;16.60;99.90;;;;;;5061326;28;20032;-74
2021/08/17 08:46:16;;;;;;;3.88;1.00;;;16.50;99.90;;;;;;5061258;28;20088;-76
2021/08/17 08:48:46;;;;;;;3.92;1.50;;;16.40;99.90;;;;;;5069798;28;20107;-75
2021/08/17 08:51:12;;;;;;;3.25;0.98;;;16.30;99.90;;;;;;5086392;28;20051;-76
2021/08/17 08:53:40;;;;;;;2.88;1.35;;;16.20;99.90;;;;;;5101858;28;20025;-74
2021/08/17 08:56:05;;;;;;;14.05;1.90;;;16.10;99.90;;;;;;5085419;28;20122;-73
2021/08/17 08:58:31;;;;;;;4.15;1.33;;;16.20;99.90;;;;;;5084656;28;20037;-80
2021/08/17 09:00:57;;;;;;;3.00;0.93;;;16.20;99.90;;;;;;5085991;28;20043;-72
2021/08/17 09:03:43;;;;;;;5.70;1.45;;;16.20;99.90;;;;;;5084517;28;20074;-73
2021/08/17 09:06:26;;;;;;;9.90;1.45;;;16.30;99.90;;;;;;5085430;28;20028;-76
2021/08/17 09:09:17;;;;;;;1.90;1.05;;;16.40;99.90;;;;;;5085783;28;20060;-79
2021/08/17 09:11:52;;;;;;;4.05;1.30;;;16.40;99.90;;;;;;5085776;28;20682;-82
2021/08/17 09:14:28;;;;;;;5.35;2.08;;;16.50;99.90;;;;;;5084305;28;20075;-76
2021/08/17 09:16:59;;;;;;;3.55;1.20;;;16.50;99.90;;;;;;5085598;28;20040;-72
2021/08/17 09:19:28;;;;;;;6.88;1.83;;;16.60;99.90;;;;;;5084246;28;20024;-76
2021/08/17 09:22:33;;;;;;;6.93;1.70;;;16.60;99.90;;;;;;5085338;28;20024;-73
2021/08/17 09:25:02;;;;;;;5.28;1.50;;;16.70;99.90;;;;;;5062734;28;20041;-75
2021/08/17 09:27:33;;;;;;;12.63;2.20;;;16.80;99.90;;;;;;5080923;28;20115;-72
2021/08/17 09:30:11;;;;;;;3.90;1.25;;;16.70;99.90;;;;;;5085373;28;20055;-74
2021/08/17 09:32:56;;;;;;;7.15;1.38;;;16.60;99.90;;;;;;5075161;28;20104;-75
2021/08/17 09:35:24;;;;;;;14.10;2.38;;;16.60;99.90;;;;;;5065497;28;20033;-74
2021/08/17 09:38:05;;;;;;;8.55;2.47;;;16.50;99.90;;;;;;5079341;28;20036;-74
2021/08/17 09:40:31;;;;;;;7.65;2.28;;;16.50;99.90;;;;;;5083277;28;20429;-77
2021/08/17 09:43:21;;;;;;;5.68;2.17;;;16.50;99.90;;;;;;5083733;28;20043;-75
2021/08/17 09:45:49;;;;;;;4.60;1.75;;;16.60;99.90;;;;;;5083614;28;20362;-71
2021/08/17 09:48:26;;;;;;;11.30;1.65;;;16.80;99.90;;;;;;5083641;28;20412;-80
2021/08/17 09:50:53;;;;;;;12.68;2.65;;;16.70;99.90;;;;;;5083263;28;20062;-74
2021/08/17 09:53:21;;;;;;;8.25;2.03;;;16.70;99.90;;;;;;5083591;28;20032;-74
2021/08/17 09:55:52;;;;;;;6.18;1.48;;;16.80;99.90;;;;;;5083284;28;20048;-77
2021/08/17 09:58:31;;;;;;;2.40;1.17;;;16.60;99.90;;;;;;5084090;28;20050;-74
2021/08/17 10:01:03;;;;;;;7.95;2.05;;;16.70;99.90;;;;;;5084862;28;20013;-74
2021/08/17 10:03:29;;;;;;;13.35;2.63;;;16.70;99.90;;;;;;5084243;28;20071;-73
2021/08/17 10:05:55;;;;;;;5.88;1.60;;;16.70;99.90;;;;;;5084481;28;20723;-75
2021/08/17 10:08:23;;;;;;;5.10;1.67;;;16.70;99.90;;;;;;5084561;28;20052;-73
2021/08/17 10:10:51;;;;;;;4.55;1.88;;;16.70;99.90;;;;;;5084672;28;20449;-73
2021/08/17 10:13:19;;;;;;;3.13;1.50;;;16.80;99.90;;;;;;5082502;28;20035;-71
2021/08/17 10:15:47;;;;;;;4.68;1.70;;;16.90;99.90;;;;;;5084141;28;20062;-74
2021/08/17 10:18:19;;;;;;;6.72;1.77;;;16.90;99.90;;;;;;5084661;28;20108;-73
2021/08/17 10:20:47;;;;;;;6.15;1.38;;;16.90;99.90;;;;;;5084184;28;20048;-69
2021/08/17 10:23:17;;;;;;;8.38;1.58;;;16.90;99.90;;;;;;5083779;28;20112;-74
2021/08/17 10:25:49;;;;;;;5.72;1.15;;;17.00;99.90;;;;;;5084787;28;20084;-72
2021/08/17 10:28:23;;;;;;;6.50;1.63;;;17.10;99.90;;;;;;5084046;28;20039;-74
2021/08/17 10:30:48;;;;;;;8.15;1.90;;;17.20;99.90;;;;;;5084070;28;20029;-75
2021/08/17 10:33:40;;;;;;;9.10;2.22;;;17.10;99.90;;;;;;5083873;28;20085;-75
2021/08/17 10:36:07;;;;;;;9.40;2.03;;;17.20;99.90;;;;;;5084285;28;20076;-72
2021/08/17 10:38:35;;;;;;;6.43;2.22;;;17.30;99.90;;;;;;5084385;28;20021;-72
2021/08/17 10:41:03;;;;;;;2.92;1.88;;;17.30;99.90;;;;;;5083535;28;20032;-74
2021/08/17 10:43:31;;;;;;;3.60;2.03;;;17.40;99.90;;;;;;5083994;28;20020;-72
2021/08/17 10:46:03;;;;;;;5.13;1.77;;;17.50;99.90;;;;;;5082534;28;20033;-72
2021/08/17 10:48:50;;;;;;;4.55;1.88;;;17.50;99.90;;;;;;5083933;28;20024;-70
2021/08/17 10:51:18;;;;;;;11.50;2.45;;;17.60;99.90;;;;;;5083376;28;20032;-71
2021/08/17 10:54:14;;;;;;;5.40;2.25;;;17.60;99.90;;;;;;5082686;28;20077;-71
2021/08/17 10:56:40;;;;;;;6.72;2.65;;;17.60;99.90;;;;;;5083920;28;20087;-71
2021/08/17 10:59:08;;;;;;;6.90;2.30;;;17.60;99.90;;;;;;5082359;28;20032;-69
2021/08/17 11:01:42;;;;;;;5.68;2.33;;;17.50;99.90;;;;;;5083368;28;20028;-72
2021/08/17 11:04:18;;;;;;;5.20;2.30;;;17.50;99.90;;;;;;5083619;28;20369;-73
2021/08/17 11:06:52;;;;;;;7.95;2.30;;;17.50;99.90;;;;;;5082091;28;20060;-73
2021/08/17 11:09:28;;;;;;;14.05;2.78;;;17.50;99.90;;;;;;5082932;28;20028;-71
2021/08/17 11:12:03;;;;;;;6.72;2.70;;;17.40;99.90;;;;;;5083186;28;20032;-73
2021/08/17 11:14:30;;;;;;;5.82;2.20;;;17.40;99.90;;;;;;5081617;28;20060;-73
2021/08/17 11:17:04;;;;;;;8.60;2.17;;;17.40;99.90;;;;;;5082967;28;20044;-75
2021/08/17 11:19:33;;;;;;;8.57;2.80;;;17.30;99.90;;;;;;5083205;28;20036;-77
2021/08/17 11:22:00;;;;;;;6.18;2.10;;;17.20;99.90;;;;;;5082991;28;20610;-75
2021/08/17 11:24:33;;;;;;;4.22;1.95;;;17.10;99.90;;;;;;5083314;28;20033;-74
2021/08/17 11:27:02;;;;;;;7.65;2.30;;;17.00;99.90;;;;;;5083166;28;20118;-76
2021/08/17 11:29:32;;;;;;;10.57;2.35;;;16.90;99.90;;;;;;5083355;28;20032;-73
2021/08/17 11:32:10;;;;;;;8.43;2.22;;;17.00;99.90;;;;;;5082987;28;20024;-76
2021/08/17 11:34:37;;;;;;;4.57;2.60;;;17.00;99.90;;;;;;5083403;28;20052;-74
2021/08/17 11:37:10;;;;;;;4.53;2.13;;;17.10;99.90;;;;;;5082730;28;20040;-74
2021/08/17 11:40:03;;;;;;;4.93;2.38;;;17.20;99.90;;;;;;5082676;28;20389;-73
2021/08/17 11:42:32;;;;;;;5.55;2.38;;;17.20;99.90;;;;;;5079999;28;20043;-69
2021/08/17 11:45:06;;;;;;;7.35;2.67;;;17.30;99.90;;;;;;5083123;28;20060;-73
2021/08/17 11:47:33;;;;;;;11.20;2.65;;;17.10;99.90;;;;;;5083151;28;20054;-75
2021/08/17 11:50:03;;;;;;;7.85;3.47;;;17.00;99.90;;;;;;5082677;28;20384;-73
2021/08/17 11:52:42;;;;;;;4.07;2.30;;;16.80;99.90;;;;;;5083104;28;20029;-74
2021/08/17 11:55:16;;;;;;;7.53;3.38;;;16.60;99.90;;;;;;5082990;28;20032;-73
2021/08/17 11:57:50;;;;;;;10.20;2.42;;;16.40;99.90;;;;;;5083035;28;20032;-76
2021/08/17 12:00:35;;;;;;;4.93;2.33;;;16.40;99.90;;;;;;5082933;28;20494;-73
2021/08/17 12:03:04;;;;;;;9.80;2.55;;;16.30;99.90;;;;;;5083093;28;20052;-75
2021/08/17 12:05:35;;;;;;;7.05;2.53;;;16.20;99.90;;;;;;5082744;28;20032;-75
2021/08/17 12:08:02;;;;;;;10.35;2.50;;;16.00;99.90;;;;;;5082457;28;20031;-76
2021/08/17 12:10:36;;;;;;;11.40;2.97;;;16.00;99.90;;;;;;5081842;28;20029;-76
2021/08/17 12:13:01;;;;;;;10.90;2.67;;;15.90;99.90;;;;;;5081275;28;20267;-72
2021/08/17 12:15:31;;;;;;;10.20;2.88;;;15.90;99.90;;;;;;5082596;28;20059;-72
2021/08/17 12:18:06;;;;;;;12.95;2.95;;;15.90;99.90;;;;;;5081567;28;20037;-78
2021/08/17 12:20:34;;;;;;;5.20;2.45;;;16.00;99.90;;;;;;5081634;28;20535;-73
2021/08/17 12:23:33;;;;;;;5.15;2.65;;;16.20;99.90;;;;;;5084002;28;20469;-75
2021/08/17 12:26:17;;;;;;;7.22;2.70;;;16.30;99.90;;;;;;5078126;28;20533;-74
2021/08/17 12:28:48;;;;;;;10.48;3.00;;;16.40;99.90;;;;;;5085070;28;20016;-74
2021/08/17 12:31:19;;;;;;;8.25;3.38;;;16.60;99.90;;;;;;5086209;28;20104;-73
2021/08/17 12:33:54;;;;;;;4.97;2.45;;;16.70;99.90;;;;;;5084830;28;20029;-73
2021/08/17 12:36:48;;;;;;;16.85;3.00;;;16.70;99.90;;;;;;5085701;28;20042;-75
2021/08/17 12:39:25;;;;;;;5.77;2.67;;;16.80;99.90;;;;;;5078302;28;20044;-75
2021/08/17 12:41:59;;;;;;;15.02;3.03;;;16.80;99.90;;;;;;5085662;28;20275;-76
2021/08/17 12:44:33;;;;;;;5.25;2.35;;;16.80;99.90;;;;;;5085203;28;20024;-72
2021/08/17 12:47:03;;;;;;;5.75;2.70;;;16.90;99.90;;;;;;5085895;28;20042;-72
2021/08/17 12:50:08;;;;;;;6.72;2.47;;;16.90;99.90;;;;;;5086179;28;20031;-74